Hauptseite
METAR-TAF:

METAR-TAF

Flughäfen :

Düsseldorf, Deutschland

Düsseldorf Airport

Breite: 51-18N, Länge: 006-46E, Höhe: 45 m

Beobachtung

Neuester Wetterbericht von vor 15 Minuten, um 11:50 UTC
Wind 2 kt aus unterschiedlichen Richtungen
Temperatur 21°C
Luftfeuchtigkeit 49%
Luftdruck 1023 hPa
Sichtweite 10 km oder mehr
Aufgelockert bewölkt in der Höhe von 4300 ft
Durchbrochene Bewölkung in der Höhe von 30000 ft

METAR: EDDL 211150Z VRB02KT 9999 SCT043 BKN300 21/10 Q1023 NOSIG

Zeit: 14:05 (12:05 UTC)

Prognose

Neuester Wetterbericht von vor 1 Stunde und 5 Minuten, um 11:00 UTC
Gültige Prognose vom 21 um 12 UTC bis 22 um 18 UTC
Wind 5 kt aus West
Sichtweite 10 km oder mehr
Leicht bewölkt in der Höhe von 4000 ft
Übergehend zu
vom 21 um 15 UTC bis 21 um 18 UTC
Wind 5 kt aus Süd/Südost

TAF: EDDL 211100Z 2112/2218 28005KT 9999 FEW040 BECMG 2115/2118 15005KT

Wetterbeobachtungen und Prognosen von mehr als 4000 Flughäfen (METAR und TAF Bericht).

Die verfügbaren Stationen werden durch gelbe und rote Markierungen auf der Karte dargestellt.

Führen Sie die Maus auf sie, um den Namen der Station zu sehen.

Darauf klicken, um die Beobachtung von Wetterbeobachtungen und Prognosen zu sehen.

Um die Karte zu ändern : klicken Sie auf den grünen Tasten mit einem schwarzen Kreuz Zum Vergrößern, auf den grünen Button mit einem Gedankenstrich zu verkleinern, oder auf die grünen Pfeile für benachbarte Karten.


METAR-TAF: